createdAt,value
2023-01-18T00:00:33.495Z,1.50
2023-01-18T00:03:02.777Z,1.50
2023-01-18T00:05:31.200Z,1.50
2023-01-18T00:07:59.092Z,1.40
2023-01-18T00:10:27.196Z,1.40
2023-01-18T00:12:55.371Z,1.40
2023-01-18T00:15:23.545Z,1.40
2023-01-18T00:17:52.580Z,1.40
2023-01-18T00:20:23.995Z,1.40
2023-01-18T00:22:52.484Z,1.40
2023-01-18T00:25:21.568Z,1.40
2023-01-18T00:27:51.209Z,1.40
2023-01-18T00:30:22.391Z,1.40
2023-01-18T00:32:53.294Z,1.40
2023-01-18T00:35:22.562Z,1.40
2023-01-18T00:37:51.537Z,1.40
2023-01-18T00:40:20.133Z,1.30
2023-01-18T00:43:05.448Z,1.30
2023-01-18T00:45:33.471Z,1.30
2023-01-18T00:48:02.733Z,1.30
2023-01-18T00:50:32.087Z,1.20
2023-01-18T00:53:00.575Z,1.20
2023-01-18T00:55:28.577Z,1.20
2023-01-18T00:57:56.588Z,1.20
2023-01-18T01:00:26.853Z,1.20
2023-01-18T01:02:54.991Z,1.20
2023-01-18T01:05:43.228Z,1.30
2023-01-18T01:08:16.900Z,1.20
2023-01-18T01:10:46.305Z,1.20
2023-01-18T01:13:32.124Z,1.20
2023-01-18T01:16:22.152Z,1.30
2023-01-18T01:19:07.366Z,1.20
2023-01-18T01:21:53.087Z,1.30
2023-01-18T01:24:39.797Z,1.20
2023-01-18T01:27:07.998Z,1.20
2023-01-18T01:29:35.889Z,1.20
2023-01-18T01:32:04.011Z,1.20
2023-01-18T01:34:32.002Z,1.20
2023-01-18T01:36:59.878Z,1.20
2023-01-18T01:39:29.150Z,1.20
2023-01-18T01:41:57.007Z,1.20
2023-01-18T01:44:48.111Z,1.20
2023-01-18T01:47:33.655Z,1.10
2023-01-18T01:50:08.831Z,1.10
2023-01-18T01:52:39.056Z,1.10
2023-01-18T01:55:13.100Z,1.10
2023-01-18T01:57:45.621Z,1.10
2023-01-18T02:00:16.399Z,1.10
2023-01-18T02:02:48.082Z,1.10
2023-01-18T02:05:18.112Z,1.00
2023-01-18T02:07:46.665Z,1.00
2023-01-18T02:10:16.592Z,1.00
2023-01-18T02:12:48.048Z,1.10
2023-01-18T02:15:18.568Z,1.10
2023-01-18T02:18:08.009Z,1.10
2023-01-18T02:20:56.295Z,1.10
2023-01-18T02:23:34.984Z,1.10
2023-01-18T02:26:33.975Z,1.10
2023-01-18T02:29:13.291Z,1.10
2023-01-18T02:31:50.832Z,1.00
2023-01-18T02:34:28.763Z,1.00
2023-01-18T02:37:05.215Z,1.00
2023-01-18T02:39:42.285Z,1.00
2023-01-18T02:42:36.424Z,1.00
2023-01-18T02:45:28.158Z,1.00
2023-01-18T02:48:02.983Z,1.00
2023-01-18T02:50:31.140Z,1.10
2023-01-18T02:52:59.342Z,1.10
2023-01-18T02:55:37.290Z,1.10
2023-01-18T02:58:10.198Z,1.10
2023-01-18T03:00:46.069Z,1.10
2023-01-18T03:03:15.994Z,1.10
2023-01-18T03:05:47.213Z,1.00
2023-01-18T03:08:21.125Z,1.00
2023-01-18T03:10:58.900Z,1.00
2023-01-18T03:13:37.292Z,0.90
2023-01-18T03:16:11.040Z,0.90
2023-01-18T03:19:00.391Z,0.80
2023-01-18T03:21:37.364Z,0.80
2023-01-18T03:24:07.356Z,0.80
2023-01-18T03:26:39.496Z,0.80
2023-01-18T03:29:25.702Z,0.90
2023-01-18T03:32:15.862Z,0.90
2023-01-18T03:34:51.221Z,0.90
2023-01-18T03:37:23.534Z,0.90
2023-01-18T03:39:54.537Z,1.00
2023-01-18T03:42:25.781Z,0.90
2023-01-18T03:44:58.670Z,0.90
2023-01-18T03:47:27.992Z,0.90
2023-01-18T03:49:55.992Z,0.90
2023-01-18T03:52:27.015Z,0.90
2023-01-18T03:55:01.296Z,0.80
2023-01-18T03:57:35.811Z,0.80
2023-01-18T04:00:06.689Z,0.80
2023-01-18T04:02:36.179Z,0.80
2023-01-18T04:05:05.166Z,0.80
2023-01-18T04:07:34.155Z,0.80
2023-01-18T04:10:02.426Z,0.80
2023-01-18T04:12:31.467Z,0.80
2023-01-18T04:14:59.622Z,0.80
2023-01-18T04:17:27.781Z,0.80
2023-01-18T04:19:57.114Z,0.80
2023-01-18T04:22:25.033Z,0.80
2023-01-18T04:24:52.917Z,0.80
2023-01-18T04:27:22.351Z,0.80
2023-01-18T04:29:51.464Z,0.80
2023-01-18T04:32:19.325Z,0.80
2023-01-18T04:34:47.239Z,0.80
2023-01-18T04:37:16.414Z,0.80
2023-01-18T04:39:44.317Z,0.80
2023-01-18T04:42:12.303Z,0.80
2023-01-18T04:44:40.229Z,0.90
2023-01-18T04:47:08.053Z,0.90
2023-01-18T04:49:35.932Z,0.90
2023-01-18T04:52:03.790Z,0.90
2023-01-18T04:54:32.996Z,0.90
2023-01-18T04:57:00.882Z,0.90
2023-01-18T04:59:29.333Z,0.90
2023-01-18T05:01:57.412Z,1.00
2023-01-18T05:04:25.279Z,1.00
2023-01-18T05:06:53.196Z,1.00
2023-01-18T05:09:21.168Z,1.00
2023-01-18T05:11:50.378Z,1.00
2023-01-18T05:14:18.483Z,1.00
2023-01-18T05:16:46.359Z,1.00
2023-01-18T05:19:14.249Z,1.00
2023-01-18T05:21:42.292Z,1.00
2023-01-18T05:24:10.294Z,1.00
2023-01-18T05:26:38.159Z,1.00
2023-01-18T05:29:07.452Z,1.00
2023-01-18T05:31:35.416Z,1.00
2023-01-18T05:34:03.378Z,1.00
2023-01-18T05:36:31.228Z,1.00
2023-01-18T05:38:59.119Z,1.00
2023-01-18T05:41:27.059Z,1.00
2023-01-18T05:43:54.919Z,1.00
2023-01-18T05:46:24.183Z,1.00
2023-01-18T05:48:52.065Z,1.00
2023-01-18T05:51:19.957Z,1.00
2023-01-18T05:53:47.955Z,1.00
2023-01-18T05:56:15.847Z,1.00
2023-01-18T05:58:43.791Z,1.00
2023-01-18T06:01:11.758Z,1.00
2023-01-18T06:03:41.604Z,0.90
2023-01-18T06:06:09.699Z,0.90
2023-01-18T06:08:37.643Z,0.90
2023-01-18T06:11:06.390Z,0.90
2023-01-18T06:13:35.348Z,0.90
2023-01-18T06:16:03.995Z,0.90
2023-01-18T06:18:33.752Z,0.90
2023-01-18T06:21:04.122Z,0.90
2023-01-18T06:23:32.781Z,0.90
2023-01-18T06:26:00.763Z,0.80
2023-01-18T06:28:30.622Z,0.90
2023-01-18T06:30:59.058Z,0.90
2023-01-18T06:33:27.019Z,0.90
2023-01-18T06:35:54.985Z,1.00
2023-01-18T06:38:24.206Z,1.00
2023-01-18T06:40:52.138Z,1.00
2023-01-18T06:43:20.057Z,1.00
2023-01-18T06:45:53.669Z,1.00
2023-01-18T06:48:22.113Z,1.00
2023-01-18T06:50:50.015Z,1.00
2023-01-18T06:53:17.892Z,1.00
2023-01-18T06:55:53.971Z,1.00
2023-01-18T06:58:21.924Z,1.00
2023-01-18T07:00:49.783Z,1.00
2023-01-18T07:03:17.800Z,1.00
2023-01-18T07:05:46.712Z,1.10
2023-01-18T07:08:14.593Z,1.10
2023-01-18T07:10:42.494Z,1.10
2023-01-18T07:13:11.710Z,1.10
2023-01-18T07:15:39.683Z,1.00
2023-01-18T07:18:07.771Z,1.00
2023-01-18T07:20:35.791Z,1.00
2023-01-18T07:23:04.875Z,1.00
2023-01-18T07:25:32.842Z,1.00
2023-01-18T07:28:00.726Z,1.00
2023-01-18T07:30:29.937Z,1.00
2023-01-18T07:32:58.045Z,1.00
2023-01-18T07:35:27.417Z,1.00
2023-01-18T07:37:55.287Z,1.00
2023-01-18T07:40:23.496Z,0.90
2023-01-18T07:42:58.200Z,0.90
2023-01-18T07:45:26.433Z,1.00
2023-01-18T07:47:55.745Z,1.00
2023-01-18T07:50:23.650Z,1.00
2023-01-18T07:52:51.448Z,1.00
2023-01-18T07:55:21.081Z,1.00
2023-01-18T07:57:49.097Z,1.00
2023-01-18T08:00:17.464Z,1.00
2023-01-18T08:02:45.428Z,1.10
2023-01-18T08:05:14.792Z,1.10
2023-01-18T08:07:43.070Z,1.10
2023-01-18T08:10:11.596Z,1.10
2023-01-18T08:12:39.475Z,1.10
2023-01-18T08:15:08.519Z,1.10
2023-01-18T08:17:37.666Z,1.10
2023-01-18T08:20:05.989Z,1.10
2023-01-18T08:22:35.223Z,1.20
2023-01-18T08:25:03.361Z,1.20
2023-01-18T08:27:31.311Z,1.20
2023-01-18T08:29:59.245Z,1.30
2023-01-18T08:32:27.206Z,1.30
2023-01-18T08:34:56.090Z,1.30
2023-01-18T08:37:24.674Z,1.40
2023-01-18T08:39:54.008Z,1.40
2023-01-18T08:42:21.848Z,1.40
2023-01-18T08:44:49.797Z,1.50
2023-01-18T08:47:18.000Z,1.50
2023-01-18T08:49:46.540Z,1.50
2023-01-18T08:52:15.292Z,1.50
2023-01-18T08:54:43.177Z,1.50
2023-01-18T08:57:12.371Z,1.60
2023-01-18T08:59:40.211Z,1.60
2023-01-18T09:02:09.868Z,1.60
2023-01-18T09:04:37.822Z,1.60
2023-01-18T09:07:05.747Z,1.70
2023-01-18T09:09:33.599Z,1.70
2023-01-18T09:12:01.427Z,1.70
2023-01-18T09:14:30.635Z,1.70
2023-01-18T09:16:58.506Z,1.70
2023-01-18T09:19:26.357Z,1.70
2023-01-18T09:21:54.203Z,1.80
2023-01-18T09:24:22.229Z,1.90
2023-01-18T09:26:52.117Z,1.90
2023-01-18T09:29:20.429Z,1.90
2023-01-18T09:31:50.359Z,2.00
2023-01-18T09:34:20.259Z,2.00
2023-01-18T09:36:51.121Z,2.10
2023-01-18T09:39:19.521Z,2.10
2023-01-18T09:41:52.515Z,2.10
2023-01-18T09:44:25.421Z,2.20
2023-01-18T09:46:58.750Z,2.20
2023-01-18T09:49:33.913Z,2.30
2023-01-18T09:52:19.355Z,2.30
2023-01-18T09:54:56.004Z,2.30
2023-01-18T09:57:37.844Z,2.30
2023-01-18T10:00:15.779Z,2.40
2023-01-18T10:02:47.943Z,2.40
2023-01-18T10:05:18.763Z,2.40
2023-01-18T10:08:02.209Z,2.40
2023-01-18T10:10:34.972Z,2.50
2023-01-18T10:13:21.965Z,2.50
2023-01-18T10:15:50.881Z,2.50
2023-01-18T10:18:20.872Z,2.60
2023-01-18T10:20:55.263Z,2.60
2023-01-18T10:23:31.309Z,2.60
2023-01-18T10:26:03.956Z,2.70
2023-01-18T10:28:45.235Z,2.70
2023-01-18T10:31:24.780Z,2.80
2023-01-18T10:33:56.948Z,2.90
2023-01-18T10:36:32.308Z,2.90
2023-01-18T10:39:04.248Z,3.00
2023-01-18T10:41:38.372Z,3.10
2023-01-18T10:44:06.706Z,3.10
2023-01-18T10:46:34.579Z,3.20
2023-01-18T10:49:04.412Z,3.30
2023-01-18T10:51:35.046Z,3.30
2023-01-18T10:54:23.286Z,3.40
2023-01-18T10:57:01.603Z,3.40
2023-01-18T10:59:37.279Z,3.50
2023-01-18T11:02:06.046Z,3.50
2023-01-18T11:04:35.624Z,3.60
2023-01-18T11:07:05.334Z,3.60
2023-01-18T11:09:42.576Z,3.60
2023-01-18T11:12:37.361Z,3.70
2023-01-18T11:15:26.405Z,3.70
2023-01-18T11:18:12.029Z,3.80
2023-01-18T11:20:51.575Z,3.80
2023-01-18T11:23:25.374Z,3.90
2023-01-18T11:25:58.699Z,3.90
2023-01-18T11:28:30.575Z,4.00
2023-01-18T11:31:00.793Z,4.10
2023-01-18T11:33:30.944Z,4.10
2023-01-18T11:36:01.684Z,4.20
2023-01-18T11:38:33.230Z,4.20
2023-01-18T11:41:14.227Z,4.20
2023-01-18T11:43:54.875Z,4.30
2023-01-18T11:46:32.031Z,4.30
2023-01-18T11:49:08.339Z,4.40
2023-01-18T11:51:45.576Z,4.40
2023-01-18T11:54:26.463Z,4.40
2023-01-18T11:56:56.855Z,4.50
2023-01-18T11:59:30.954Z,4.40
2023-01-18T12:02:26.850Z,4.40
2023-01-18T12:05:16.518Z,4.40
2023-01-18T12:07:55.396Z,4.40
2023-01-18T12:10:24.880Z,4.40
2023-01-18T12:13:07.863Z,4.40
2023-01-18T12:15:53.242Z,4.50
2023-01-18T12:18:39.204Z,4.50
2023-01-18T12:21:11.836Z,4.50
2023-01-18T12:24:19.017Z,4.60
2023-01-18T12:26:56.604Z,4.70
2023-01-18T12:29:57.899Z,4.70
2023-01-18T12:32:49.691Z,4.70
2023-01-18T12:35:53.838Z,4.70
2023-01-18T12:38:24.117Z,4.70
2023-01-18T12:41:20.097Z,4.60
2023-01-18T12:44:03.006Z,4.60
2023-01-18T12:46:35.163Z,4.60
2023-01-18T12:49:06.491Z,4.50
2023-01-18T12:51:38.230Z,4.50
2023-01-18T12:54:15.532Z,4.60
2023-01-18T12:56:46.417Z,4.50
2023-01-18T12:59:21.187Z,4.50
2023-01-18T13:01:53.985Z,4.50
2023-01-18T13:04:27.049Z,4.40
2023-01-18T13:07:00.542Z,4.40
2023-01-18T13:09:34.174Z,4.40
2023-01-18T13:12:03.683Z,4.40
2023-01-18T13:14:37.833Z,4.40
2023-01-18T13:17:12.558Z,4.40
2023-01-18T13:19:44.081Z,4.40
2023-01-18T13:22:23.992Z,4.40
2023-01-18T13:25:08.810Z,4.40
2023-01-18T13:27:37.824Z,4.40
2023-01-18T13:30:19.233Z,4.40
2023-01-18T13:32:49.141Z,4.40
2023-01-18T13:35:21.817Z,4.40
2023-01-18T13:37:55.821Z,4.50
2023-01-18T13:40:35.661Z,4.50
2023-01-18T13:43:05.687Z,4.50
2023-01-18T13:46:03.022Z,4.50
2023-01-18T13:48:50.946Z,4.50
2023-01-18T13:51:57.357Z,4.50
2023-01-18T13:55:04.132Z,4.50
2023-01-18T13:57:34.375Z,4.60
2023-01-18T14:00:02.980Z,4.60
2023-01-18T14:02:41.757Z,4.60
2023-01-18T14:05:19.900Z,4.60
2023-01-18T14:07:51.442Z,4.60
2023-01-18T14:10:26.836Z,4.60
2023-01-18T14:12:56.982Z,4.60
2023-01-18T14:15:29.066Z,4.60
2023-01-18T14:17:59.594Z,4.60
2023-01-18T14:20:49.755Z,4.60
2023-01-18T14:23:56.224Z,4.60
2023-01-18T14:26:29.660Z,4.50
2023-01-18T14:29:01.534Z,4.50
2023-01-18T14:31:32.583Z,4.60
2023-01-18T14:34:38.047Z,4.50
2023-01-18T14:37:26.194Z,4.50
2023-01-18T14:40:14.615Z,4.50
2023-01-18T14:42:48.232Z,4.50
2023-01-18T14:45:23.120Z,4.50
2023-01-18T14:47:51.060Z,4.50
2023-01-18T14:50:23.624Z,4.50
2023-01-18T14:52:53.393Z,4.50
2023-01-18T14:55:26.998Z,4.50
2023-01-18T14:58:03.516Z,4.50
2023-01-18T15:00:31.752Z,4.50
2023-01-18T15:03:02.883Z,4.50
2023-01-18T15:05:32.505Z,4.50
2023-01-18T15:08:00.963Z,4.50
2023-01-18T15:10:29.256Z,4.50
2023-01-18T15:13:00.153Z,4.50
2023-01-18T15:15:31.493Z,4.50
2023-01-18T15:18:10.343Z,4.50
2023-01-18T15:20:54.962Z,4.50
2023-01-18T15:23:23.727Z,4.40
2023-01-18T15:25:53.401Z,4.40
2023-01-18T15:28:24.434Z,4.50
2023-01-18T15:30:54.685Z,4.40
2023-01-18T15:33:24.719Z,4.50
2023-01-18T15:35:58.222Z,4.40
2023-01-18T15:38:26.454Z,4.40
2023-01-18T15:41:00.471Z,4.40
2023-01-18T15:43:32.696Z,4.40
2023-01-18T15:46:01.442Z,4.40
2023-01-18T15:48:37.203Z,4.40
2023-01-18T15:51:10.963Z,4.40
2023-01-18T15:53:45.745Z,4.30
2023-01-18T15:56:18.629Z,4.30
2023-01-18T15:58:49.971Z,4.30
2023-01-18T16:01:20.834Z,4.30
2023-01-18T16:03:58.779Z,4.30
2023-01-18T16:06:33.921Z,4.30
2023-01-18T16:09:10.619Z,4.30
2023-01-18T16:11:46.367Z,4.30
2023-01-18T16:14:24.801Z,4.20
2023-01-18T16:16:54.183Z,4.20
2023-01-18T16:19:28.386Z,4.20
2023-01-18T16:22:00.492Z,4.20
2023-01-18T16:24:33.354Z,4.20
2023-01-18T16:27:10.335Z,4.10
2023-01-18T16:29:44.915Z,4.20
2023-01-18T16:32:34.226Z,4.20
2023-01-18T16:35:11.777Z,4.10
2023-01-18T16:37:44.307Z,4.20
2023-01-18T16:40:14.889Z,4.10
2023-01-18T16:42:58.497Z,4.20
2023-01-18T16:45:27.195Z,4.10
2023-01-18T16:47:55.147Z,4.20
2023-01-18T16:50:23.546Z,4.20
2023-01-18T16:52:52.867Z,4.20
2023-01-18T16:55:20.942Z,4.10
2023-01-18T16:57:51.436Z,4.20
2023-01-18T17:00:21.991Z,4.20
2023-01-18T17:02:50.112Z,4.20
2023-01-18T17:05:18.382Z,4.20
2023-01-18T17:07:46.416Z,4.20
2023-01-18T17:10:21.852Z,4.20
2023-01-18T17:12:49.747Z,4.20
2023-01-18T17:15:19.934Z,4.20
2023-01-18T17:17:48.135Z,4.20
2023-01-18T17:20:19.677Z,4.20
2023-01-18T17:22:47.763Z,4.20
2023-01-18T17:25:16.405Z,4.20
2023-01-18T17:27:46.034Z,4.20
2023-01-18T17:30:17.108Z,4.20
2023-01-18T17:32:46.821Z,4.20
2023-01-18T17:35:15.471Z,4.20
2023-01-18T17:37:43.440Z,4.20
2023-01-18T17:40:22.604Z,4.30
2023-01-18T17:42:54.113Z,4.30
2023-01-18T17:45:22.206Z,4.30
2023-01-18T17:47:52.484Z,4.30
2023-01-18T17:50:24.887Z,4.30
2023-01-18T17:52:54.097Z,4.30
2023-01-18T17:55:27.487Z,4.40
2023-01-18T17:57:59.967Z,4.40
2023-01-18T18:00:28.021Z,4.40
2023-01-18T18:02:57.323Z,4.40
2023-01-18T18:05:25.574Z,4.40
2023-01-18T18:07:53.461Z,4.40
2023-01-18T18:10:21.629Z,4.40
2023-01-18T18:12:49.670Z,4.40
2023-01-18T18:15:22.134Z,4.50
2023-01-18T18:17:50.395Z,4.50
2023-01-18T18:20:19.675Z,4.50
2023-01-18T18:22:48.643Z,4.50
2023-01-18T18:25:16.749Z,4.50
2023-01-18T18:27:46.780Z,4.50
2023-01-18T18:30:16.685Z,4.50
2023-01-18T18:32:46.569Z,4.50
2023-01-18T18:35:24.952Z,4.50
2023-01-18T18:37:55.406Z,4.50
2023-01-18T18:40:23.395Z,4.50
2023-01-18T18:43:07.551Z,4.50
2023-01-18T18:45:35.881Z,4.50
2023-01-18T18:48:05.826Z,4.50
2023-01-18T18:50:34.151Z,4.60
2023-01-18T18:53:02.700Z,4.50
2023-01-18T18:55:30.864Z,4.50
2023-01-18T18:57:58.758Z,4.60
2023-01-18T19:00:27.255Z,4.60
2023-01-18T19:02:59.102Z,4.60
2023-01-18T19:05:29.311Z,4.60
2023-01-18T19:07:57.401Z,4.60
2023-01-18T19:10:27.457Z,4.60
2023-01-18T19:12:56.006Z,4.60
2023-01-18T19:15:24.523Z,4.60
2023-01-18T19:17:53.195Z,4.50
2023-01-18T19:20:21.941Z,4.50
2023-01-18T19:22:52.037Z,4.50
2023-01-18T19:25:20.550Z,4.40
2023-01-18T19:27:48.499Z,4.30
2023-01-18T19:30:19.905Z,4.30
2023-01-18T19:32:49.221Z,4.10
2023-01-18T19:35:17.781Z,4.10
2023-01-18T19:37:46.415Z,4.00
2023-01-18T19:40:16.902Z,3.90
2023-01-18T19:42:47.169Z,3.80
2023-01-18T19:45:23.173Z,3.80
2023-01-18T19:47:56.379Z,3.80
2023-01-18T19:50:24.864Z,3.70
2023-01-18T19:52:52.862Z,3.70
2023-01-18T19:55:22.750Z,3.70
2023-01-18T19:57:52.216Z,3.70
2023-01-18T20:00:21.104Z,3.70
2023-01-18T20:02:49.162Z,3.80
2023-01-18T20:05:17.185Z,3.80
2023-01-18T20:07:45.140Z,3.90
2023-01-18T20:10:13.349Z,3.90
2023-01-18T20:12:42.601Z,3.90
2023-01-18T20:15:10.880Z,4.00
2023-01-18T20:17:39.382Z,4.00
2023-01-18T20:20:08.219Z,4.00
2023-01-18T20:22:36.197Z,4.00
2023-01-18T20:25:04.268Z,4.00
2023-01-18T20:27:32.157Z,4.10
2023-01-18T20:30:01.361Z,4.10
2023-01-18T20:32:29.315Z,4.10
2023-01-18T20:34:57.259Z,4.10
2023-01-18T20:37:25.135Z,4.10
2023-01-18T20:39:53.018Z,4.10
2023-01-18T20:42:20.904Z,4.10
2023-01-18T20:44:53.561Z,4.10
2023-01-18T20:47:22.994Z,4.10
2023-01-18T20:49:51.357Z,4.10
2023-01-18T20:52:19.611Z,4.10
2023-01-18T20:54:47.626Z,4.00
2023-01-18T20:57:15.633Z,4.00
2023-01-18T20:59:44.179Z,4.00
2023-01-18T21:02:12.644Z,4.00
2023-01-18T21:04:42.346Z,3.90
2023-01-18T21:07:10.187Z,3.90
2023-01-18T21:09:38.047Z,4.00
2023-01-18T21:12:06.140Z,4.00
2023-01-18T21:14:34.072Z,3.90
2023-01-18T21:17:01.906Z,3.90
2023-01-18T21:19:29.830Z,3.90
2023-01-18T21:21:59.106Z,3.90
2023-01-18T21:24:27.060Z,3.80
2023-01-18T21:26:55.074Z,3.90
2023-01-18T21:29:22.987Z,3.90
2023-01-18T21:31:50.882Z,3.90
2023-01-18T21:34:19.032Z,3.90
2023-01-18T21:36:47.045Z,3.90
2023-01-18T21:39:24.794Z,3.90
2023-01-18T21:42:10.395Z,4.00
2023-01-18T21:44:55.821Z,3.90
2023-01-18T21:47:23.860Z,4.00
2023-01-18T21:50:17.498Z,4.00
2023-01-18T21:53:03.244Z,4.00
2023-01-18T21:55:32.594Z,3.90
2023-01-18T21:58:17.996Z,3.60
2023-01-18T22:00:46.010Z,3.50
2023-01-18T22:03:15.313Z,3.40
2023-01-18T22:05:43.247Z,3.40
2023-01-18T22:08:11.172Z,3.40
2023-01-18T22:10:40.414Z,3.40
2023-01-18T22:13:08.362Z,3.30
2023-01-18T22:15:36.327Z,3.40
2023-01-18T22:18:04.379Z,3.40
2023-01-18T22:20:32.341Z,3.40
2023-01-18T22:23:00.294Z,3.40
2023-01-18T22:25:28.189Z,3.40
2023-01-18T22:27:57.724Z,3.40
2023-01-18T22:30:25.911Z,3.40
2023-01-18T22:32:53.813Z,3.40
2023-01-18T22:35:21.801Z,3.40
2023-01-18T22:37:49.688Z,3.40
2023-01-18T22:40:17.823Z,3.50
2023-01-18T22:42:45.705Z,3.50
2023-01-18T22:45:15.088Z,3.50
2023-01-18T22:47:43.055Z,3.50
2023-01-18T22:50:12.269Z,3.50
2023-01-18T22:52:40.202Z,3.50
2023-01-18T22:55:08.955Z,3.50
2023-01-18T22:57:36.959Z,3.50
2023-01-18T23:00:06.931Z,3.50
2023-01-18T23:02:36.210Z,3.50
2023-01-18T23:05:04.580Z,3.60
2023-01-18T23:07:32.460Z,3.60
2023-01-18T23:10:00.357Z,3.60
2023-01-18T23:12:28.300Z,3.60
2023-01-18T23:15:21.903Z,3.60
2023-01-18T23:17:51.342Z,3.50
2023-01-18T23:20:19.902Z,3.60
2023-01-18T23:22:47.922Z,3.60
2023-01-18T23:25:16.305Z,3.60
2023-01-18T23:27:44.303Z,3.60
2023-01-18T23:30:13.985Z,3.60
2023-01-18T23:32:42.256Z,3.60
2023-01-18T23:35:11.893Z,3.60
2023-01-18T23:37:39.964Z,3.60
2023-01-18T23:40:27.318Z,3.60
2023-01-18T23:43:13.091Z,3.70
2023-01-18T23:45:58.491Z,3.60
2023-01-18T23:48:43.883Z,3.60
2023-01-18T23:51:30.777Z,3.60
2023-01-18T23:54:15.946Z,3.70
2023-01-18T23:56:44.376Z,3.70
2023-01-18T23:59:13.802Z,3.70
